EAG5512 RJBB-ROAH
Flight info
| Callsign | EAG5512 |
|---|---|
| Flight time | 1h 42m |
| Altitude | 36000 |
| Route | OBLUR Y236 MULAB Y75 ONC Y525 IHEYA |
| Aircraft | A343/H-SDE2E3FGHIJ4J5M1RWXY/LB1D1 |
Departure
| Time | 2026-04-29 22:25 |
|---|---|
| Airport | Kansai International Airport (RJBB) |
Arrival
| Time | 2026-04-30 00:07 |
|---|---|
| Airport | Naha International Airport (ROAH) |
| Time | Latitude | Longitude | Altitude | Speed | Heading |
|---|---|---|---|---|---|
| 2026-04-29 22:09 | 34.43169 | 135.24238 | 23 ft | 0 kts | 321° |
| 2026-04-29 22:16 | 34.43154 | 135.24252 | 24 ft | 4 kts | 321° |
| 2026-04-29 22:16 | 34.43134 | 135.24273 | 23 ft | 4 kts | 307° |
| 2026-04-29 22:16 | 34.43123 | 135.24299 | 24 ft | 4 kts | 276° |
| 2026-04-29 22:17 | 34.43127 | 135.24329 | 23 ft | 4 kts | 236° |
| 2026-04-29 22:17 | 34.43133 | 135.24339 | 23 ft | 1 kts | 231° |
| 2026-04-29 22:19 | 34.43130 | 135.24335 | 23 ft | 1 kts | 231° |
| 2026-04-29 22:19 | 34.43116 | 135.24315 | 23 ft | 7 kts | 231° |
| 2026-04-29 22:19 | 34.43073 | 135.24250 | 24 ft | 11 kts | 231° |
| 2026-04-29 22:20 | 34.43023 | 135.24175 | 23 ft | 12 kts | 231° |
| 2026-04-29 22:20 | 34.42970 | 135.24096 | 24 ft | 12 kts | 231° |
| 2026-04-29 22:20 | 34.42915 | 135.24013 | 23 ft | 13 kts | 231° |
| 2026-04-29 22:20 | 34.42856 | 135.23925 | 24 ft | 14 kts | 231° |
| 2026-04-29 22:21 | 34.42794 | 135.23834 | 24 ft | 14 kts | 225° |
| 2026-04-29 22:21 | 34.42706 | 135.23811 | 25 ft | 13 kts | 189° |
| 2026-04-29 22:21 | 34.42638 | 135.23746 | 27 ft | 13 kts | 230° |
| 2026-04-29 22:21 | 34.42580 | 135.23661 | 24 ft | 13 kts | 231° |
| 2026-04-29 22:22 | 34.42521 | 135.23572 | 24 ft | 14 kts | 231° |
| 2026-04-29 22:22 | 34.42458 | 135.23481 | 27 ft | 14 kts | 230° |
| 2026-04-29 22:22 | 34.42394 | 135.23385 | 27 ft | 15 kts | 231° |
| 2026-04-29 22:22 | 34.42328 | 135.23286 | 26 ft | 15 kts | 231° |
| 2026-04-29 22:23 | 34.42258 | 135.23185 | 27 ft | 16 kts | 230° |
| 2026-04-29 22:23 | 34.42188 | 135.23081 | 25 ft | 16 kts | 231° |
| 2026-04-29 22:23 | 34.42115 | 135.22974 | 23 ft | 17 kts | 231° |
| 2026-04-29 22:23 | 34.42041 | 135.22863 | 26 ft | 17 kts | 231° |
| 2026-04-29 22:24 | 34.41962 | 135.22768 | 26 ft | 14 kts | 197° |
| 2026-04-29 22:24 | 34.41878 | 135.22811 | 26 ft | 14 kts | 142° |
| 2026-04-29 22:24 | 34.41792 | 135.22890 | 18 ft | 12 kts | 147° |
| 2026-04-29 22:24 | 34.41761 | 135.22960 | 18 ft | 8 kts | 70° |
| 2026-04-29 22:25 | 34.41816 | 135.23045 | 18 ft | 33 kts | 51° |
| 2026-04-29 22:25 | 34.42135 | 135.23519 | 18 ft | 110 kts | 51° |
| 2026-04-29 22:25 | 34.42756 | 135.24444 | 29 ft | 170 kts | 50° |
| 2026-04-29 22:25 | 34.43553 | 135.25611 | 637 ft | 187 kts | 51° |
| 2026-04-29 22:26 | 34.44442 | 135.26840 | 1358 ft | 204 kts | 48° |
| 2026-04-29 22:26 | 34.45500 | 135.28188 | 1694 ft | 234 kts | 47° |
| 2026-04-29 22:26 | 34.46765 | 135.29510 | 2348 ft | 247 kts | 28° |
| 2026-04-29 22:26 | 34.48385 | 135.30158 | 3194 ft | 252 kts | 13° |
| 2026-04-29 22:27 | 34.50143 | 135.30436 | 4042 ft | 258 kts | 359° |
| 2026-04-29 22:27 | 34.51892 | 135.29943 | 4927 ft | 262 kts | 333° |
| 2026-04-29 22:27 | 34.53303 | 135.28554 | 5799 ft | 265 kts | 307° |
| 2026-04-29 22:27 | 34.54131 | 135.26546 | 6665 ft | 268 kts | 289° |
| 2026-04-29 22:28 | 34.54702 | 135.24372 | 7529 ft | 271 kts | 287° |
| 2026-04-29 22:28 | 34.55112 | 135.22141 | 8392 ft | 273 kts | 274° |
| 2026-04-29 22:28 | 34.54920 | 135.19858 | 9234 ft | 275 kts | 252° |
| 2026-04-29 22:28 | 34.54090 | 135.17794 | 10072 ft | 277 kts | 239° |
| 2026-04-29 22:29 | 34.53397 | 135.16444 | 10488 ft | 285 kts | 238° |
| 2026-04-29 22:29 | 34.51914 | 135.13647 | 10971 ft | 308 kts | 238° |
| 2026-04-29 22:29 | 34.50729 | 135.11387 | 11281 ft | 324 kts | 239° |
| 2026-04-29 22:29 | 34.49494 | 135.09012 | 11583 ft | 341 kts | 239° |
| 2026-04-29 22:30 | 34.48213 | 135.06547 | 12063 ft | 350 kts | 239° |
| 2026-04-29 22:30 | 34.46912 | 135.04038 | 12705 ft | 354 kts | 239° |
| 2026-04-29 22:30 | 34.45616 | 135.01532 | 13394 ft | 356 kts | 239° |
| 2026-04-29 22:30 | 34.44296 | 134.98983 | 14073 ft | 358 kts | 239° |
| 2026-04-29 22:31 | 34.42967 | 134.96418 | 14786 ft | 360 kts | 239° |
| 2026-04-29 22:31 | 34.41626 | 134.93832 | 15494 ft | 361 kts | 239° |
| 2026-04-29 22:31 | 34.40290 | 134.91257 | 16209 ft | 362 kts | 239° |
| 2026-04-29 22:31 | 34.38976 | 134.88639 | 16856 ft | 364 kts | 242° |
| 2026-04-29 22:32 | 34.37723 | 134.85970 | 17488 ft | 366 kts | 242° |
| 2026-04-29 22:32 | 34.36461 | 134.83271 | 18089 ft | 368 kts | 242° |
| 2026-04-29 22:32 | 34.35208 | 134.80610 | 18688 ft | 370 kts | 242° |
| 2026-04-29 22:32 | 34.33927 | 134.77906 | 19298 ft | 371 kts | 242° |
| 2026-04-29 22:33 | 34.32636 | 134.75193 | 19880 ft | 373 kts | 242° |
| 2026-04-29 22:33 | 34.31336 | 134.72464 | 20400 ft | 375 kts | 242° |
| 2026-04-29 22:33 | 34.30026 | 134.69722 | 20934 ft | 377 kts | 242° |
| 2026-04-29 22:33 | 34.28684 | 134.66983 | 21439 ft | 380 kts | 239° |
| 2026-04-29 22:34 | 34.27101 | 134.64398 | 21940 ft | 384 kts | 234° |
| 2026-04-29 22:34 | 34.25389 | 134.61908 | 22424 ft | 387 kts | 233° |
| 2026-04-29 22:34 | 34.23648 | 134.59413 | 22888 ft | 389 kts | 233° |
| 2026-04-29 22:34 | 34.21898 | 134.56909 | 23360 ft | 391 kts | 233° |
| 2026-04-29 22:35 | 34.20138 | 134.54387 | 23817 ft | 392 kts | 233° |
| 2026-04-29 22:35 | 34.18378 | 134.51868 | 24283 ft | 391 kts | 234° |
| 2026-04-29 22:35 | 34.16643 | 134.49373 | 24926 ft | 388 kts | 234° |
| 2026-04-29 22:35 | 34.14897 | 134.46856 | 25124 ft | 395 kts | 233° |
| 2026-04-29 22:36 | 34.13118 | 134.44302 | 25405 ft | 400 kts | 233° |
| 2026-04-29 22:36 | 34.11340 | 134.41756 | 25751 ft | 402 kts | 233° |
| 2026-04-29 22:36 | 34.09530 | 134.39169 | 26105 ft | 405 kts | 233° |
| 2026-04-29 22:36 | 34.07707 | 134.36562 | 26452 ft | 407 kts | 233° |
| 2026-04-29 22:37 | 34.05888 | 134.33936 | 26842 ft | 409 kts | 233° |
| 2026-04-29 22:37 | 34.04075 | 134.31285 | 27167 ft | 412 kts | 234° |
| 2026-04-29 22:37 | 34.02268 | 134.28607 | 27581 ft | 412 kts | 234° |
| 2026-04-29 22:37 | 34.00441 | 134.25935 | 27924 ft | 415 kts | 233° |
| 2026-04-29 22:38 | 33.98589 | 134.23253 | 28231 ft | 416 kts | 233° |
| 2026-04-29 22:38 | 33.96731 | 134.20576 | 28561 ft | 418 kts | 233° |
| 2026-04-29 22:38 | 33.94864 | 134.17881 | 28878 ft | 420 kts | 233° |
| 2026-04-29 22:38 | 33.92985 | 134.15174 | 29176 ft | 422 kts | 233° |
| 2026-04-29 22:39 | 33.91737 | 134.13378 | 29342 ft | 423 kts | 233° |
| 2026-04-29 22:39 | 33.89842 | 134.10655 | 29644 ft | 424 kts | 233° |
| 2026-04-29 22:39 | 33.87945 | 134.07938 | 30103 ft | 421 kts | 233° |
| 2026-04-29 22:39 | 33.86064 | 134.05236 | 30480 ft | 420 kts | 233° |
| 2026-04-29 22:40 | 33.84192 | 134.02528 | 30802 ft | 420 kts | 233° |
| 2026-04-29 22:40 | 33.82325 | 133.99837 | 31152 ft | 419 kts | 233° |
| 2026-04-29 22:40 | 33.80455 | 133.97154 | 31516 ft | 418 kts | 233° |
| 2026-04-29 22:40 | 33.78591 | 133.94470 | 31813 ft | 418 kts | 233° |
| 2026-04-29 22:41 | 33.76736 | 133.91787 | 32166 ft | 417 kts | 234° |
| 2026-04-29 22:41 | 33.74931 | 133.89080 | 32588 ft | 414 kts | 236° |
| 2026-04-29 22:41 | 33.73263 | 133.86329 | 33007 ft | 411 kts | 238° |
| 2026-04-29 22:41 | 33.71610 | 133.83477 | 33348 ft | 411 kts | 238° |
| 2026-04-29 22:42 | 33.70010 | 133.80691 | 33617 ft | 410 kts | 239° |
| 2026-04-29 22:42 | 33.68380 | 133.77862 | 33844 ft | 410 kts | 238° |
| 2026-04-29 22:42 | 33.66743 | 133.75062 | 34103 ft | 409 kts | 238° |
| 2026-04-29 22:42 | 33.65090 | 133.72293 | 34405 ft | 408 kts | 238° |
| 2026-04-29 22:43 | 33.63425 | 133.69530 | 34704 ft | 407 kts | 238° |
| 2026-04-29 22:43 | 33.61771 | 133.66787 | 34982 ft | 406 kts | 238° |
| 2026-04-29 22:43 | 33.60116 | 133.64030 | 35196 ft | 406 kts | 238° |
| 2026-04-29 22:43 | 33.58470 | 133.61287 | 35455 ft | 405 kts | 238° |
| 2026-04-29 22:44 | 33.56826 | 133.58548 | 35668 ft | 404 kts | 238° |
| 2026-04-29 22:44 | 33.55186 | 133.55820 | 35923 ft | 403 kts | 238° |
| 2026-04-29 22:44 | 33.53547 | 133.53095 | 36156 ft | 402 kts | 238° |
| 2026-04-29 22:44 | 33.51910 | 133.50377 | 36348 ft | 402 kts | 238° |
| 2026-04-29 22:45 | 33.50294 | 133.47697 | 36529 ft | 402 kts | 238° |
| 2026-04-29 22:45 | 33.48636 | 133.44951 | 36719 ft | 401 kts | 238° |
| 2026-04-29 22:45 | 33.46477 | 133.41377 | 37091 ft | 398 kts | 238° |
| 2026-04-29 22:45 | 33.45382 | 133.39566 | 37262 ft | 396 kts | 238° |
| 2026-04-29 22:46 | 33.43768 | 133.36908 | 37516 ft | 394 kts | 238° |
| 2026-04-29 22:46 | 33.42183 | 133.34293 | 37754 ft | 392 kts | 238° |
| 2026-04-29 22:46 | 33.40544 | 133.31691 | 37995 ft | 391 kts | 236° |
| 2026-04-29 22:47 | 33.37103 | 133.26594 | 38081 ft | 397 kts | 235° |
| 2026-04-29 22:47 | 33.33564 | 133.21436 | 38079 ft | 404 kts | 235° |
| 2026-04-29 22:48 | 33.29987 | 133.16178 | 38080 ft | 409 kts | 236° |
| 2026-04-29 22:48 | 33.26409 | 133.10890 | 38081 ft | 408 kts | 235° |
| 2026-04-29 22:49 | 33.22867 | 133.05656 | 38080 ft | 407 kts | 235° |
| 2026-04-29 22:49 | 33.19304 | 133.00390 | 38080 ft | 407 kts | 235° |
| 2026-04-29 22:50 | 33.15732 | 132.95121 | 38082 ft | 408 kts | 235° |
| 2026-04-29 22:50 | 33.12160 | 132.89865 | 38083 ft | 408 kts | 235° |
| 2026-04-29 22:51 | 33.08584 | 132.84605 | 38079 ft | 408 kts | 235° |
| 2026-04-29 22:51 | 33.03238 | 132.76763 | 38079 ft | 408 kts | 236° |
| 2026-04-29 22:52 | 32.99535 | 132.71633 | 38080 ft | 410 kts | 232° |
| 2026-04-29 22:52 | 32.95568 | 132.66709 | 38079 ft | 411 kts | 231° |
| 2026-04-29 22:53 | 32.91589 | 132.61807 | 38081 ft | 412 kts | 231° |
| 2026-04-29 22:53 | 32.87639 | 132.56860 | 38073 ft | 412 kts | 232° |
| 2026-04-29 22:54 | 32.83734 | 132.51933 | 38073 ft | 412 kts | 232° |
| 2026-04-29 22:54 | 32.79805 | 132.46976 | 38072 ft | 412 kts | 232° |
| 2026-04-29 22:55 | 32.75872 | 132.42016 | 38073 ft | 412 kts | 232° |
| 2026-04-29 22:55 | 32.71926 | 132.37049 | 38072 ft | 413 kts | 232° |
| 2026-04-29 22:56 | 32.67980 | 132.32089 | 38065 ft | 414 kts | 232° |
| 2026-04-29 22:56 | 32.64016 | 132.27117 | 38063 ft | 415 kts | 232° |
| 2026-04-29 22:57 | 32.60045 | 132.22143 | 38064 ft | 415 kts | 232° |
| 2026-04-29 22:57 | 32.56067 | 132.17167 | 38064 ft | 416 kts | 232° |
| 2026-04-29 22:58 | 32.52098 | 132.12209 | 38054 ft | 417 kts | 232° |
| 2026-04-29 22:58 | 32.48097 | 132.07231 | 38053 ft | 417 kts | 231° |
| 2026-04-29 22:59 | 32.43516 | 132.02885 | 38054 ft | 427 kts | 220° |
| 2026-04-29 22:59 | 32.38440 | 131.99156 | 38045 ft | 430 kts | 218° |
| 2026-04-29 23:00 | 32.33278 | 131.95546 | 38045 ft | 431 kts | 218° |
| 2026-04-29 23:00 | 32.28111 | 131.91941 | 38039 ft | 431 kts | 218° |
| 2026-04-29 23:01 | 32.22953 | 131.88319 | 38031 ft | 431 kts | 218° |
| 2026-04-29 23:01 | 32.17797 | 131.84692 | 38026 ft | 431 kts | 218° |
| 2026-04-29 23:02 | 32.12668 | 131.81085 | 38027 ft | 432 kts | 218° |
| 2026-04-29 23:02 | 32.07500 | 131.77458 | 38029 ft | 432 kts | 218° |
| 2026-04-29 23:03 | 32.02327 | 131.73832 | 38026 ft | 432 kts | 218° |
| 2026-04-29 23:03 | 31.97153 | 131.70213 | 38026 ft | 432 kts | 218° |
| 2026-04-29 23:04 | 31.91981 | 131.66605 | 38017 ft | 433 kts | 218° |
| 2026-04-29 23:04 | 31.86800 | 131.62987 | 38017 ft | 432 kts | 218° |
| 2026-04-29 23:05 | 31.81627 | 131.59378 | 38019 ft | 432 kts | 218° |
| 2026-04-29 23:05 | 31.76451 | 131.55770 | 38017 ft | 432 kts | 218° |
| 2026-04-29 23:06 | 31.71299 | 131.52185 | 38017 ft | 433 kts | 217° |
| 2026-04-29 23:06 | 31.66120 | 131.48590 | 38017 ft | 432 kts | 217° |
| 2026-04-29 23:07 | 31.60939 | 131.44998 | 38017 ft | 432 kts | 217° |
| 2026-04-29 23:07 | 31.55749 | 131.41404 | 38017 ft | 433 kts | 217° |
| 2026-04-29 23:08 | 31.50563 | 131.37816 | 38007 ft | 433 kts | 217° |
| 2026-04-29 23:08 | 31.45371 | 131.34230 | 38008 ft | 433 kts | 217° |
| 2026-04-29 23:09 | 31.40185 | 131.30650 | 38011 ft | 433 kts | 217° |
| 2026-04-29 23:09 | 31.34991 | 131.27070 | 38000 ft | 433 kts | 217° |
| 2026-04-29 23:10 | 31.29796 | 131.23499 | 37999 ft | 433 kts | 217° |
| 2026-04-29 23:10 | 31.24592 | 131.19924 | 37999 ft | 433 kts | 217° |
| 2026-04-29 23:11 | 31.19396 | 131.16414 | 37994 ft | 435 kts | 212° |
| 2026-04-29 23:11 | 31.14060 | 131.13045 | 37988 ft | 436 kts | 212° |
| 2026-04-29 23:12 | 31.08767 | 131.09590 | 37990 ft | 436 kts | 213° |
| 2026-04-29 23:12 | 31.03521 | 131.06040 | 37980 ft | 435 kts | 213° |
| 2026-04-29 23:13 | 30.98305 | 131.02466 | 37983 ft | 434 kts | 217° |
| 2026-04-29 23:13 | 30.93172 | 130.98745 | 37980 ft | 434 kts | 217° |
| 2026-04-29 23:14 | 30.88046 | 130.95088 | 37979 ft | 435 kts | 216° |
| 2026-04-29 23:14 | 30.82836 | 130.91500 | 37968 ft | 436 kts | 215° |
| 2026-04-29 23:15 | 30.77589 | 130.87940 | 37964 ft | 436 kts | 215° |
| 2026-04-29 23:15 | 30.72344 | 130.84391 | 37979 ft | 436 kts | 215° |
| 2026-04-29 23:16 | 30.67098 | 130.80839 | 37977 ft | 436 kts | 215° |
| 2026-04-29 23:16 | 30.61851 | 130.77287 | 37967 ft | 436 kts | 215° |
| 2026-04-29 23:17 | 30.56598 | 130.73736 | 37940 ft | 436 kts | 215° |
| 2026-04-29 23:17 | 30.51383 | 130.70215 | 37948 ft | 437 kts | 215° |
| 2026-04-29 23:18 | 30.46116 | 130.66664 | 37942 ft | 437 kts | 215° |
| 2026-04-29 23:18 | 30.40848 | 130.63118 | 37939 ft | 438 kts | 215° |
| 2026-04-29 23:19 | 30.35572 | 130.59570 | 37952 ft | 438 kts | 215° |
| 2026-04-29 23:19 | 30.30321 | 130.56058 | 37942 ft | 439 kts | 215° |
| 2026-04-29 23:20 | 30.25031 | 130.52510 | 37942 ft | 439 kts | 215° |
| 2026-04-29 23:20 | 30.19764 | 130.48932 | 37948 ft | 438 kts | 216° |
| 2026-04-29 23:21 | 30.14503 | 130.45358 | 37942 ft | 438 kts | 216° |
| 2026-04-29 23:21 | 30.09224 | 130.41813 | 37940 ft | 438 kts | 216° |
| 2026-04-29 23:22 | 30.03939 | 130.38289 | 37945 ft | 439 kts | 216° |
| 2026-04-29 23:22 | 29.98642 | 130.34764 | 37937 ft | 439 kts | 216° |
| 2026-04-29 23:23 | 29.94236 | 130.31839 | 37945 ft | 440 kts | 216° |
| 2026-04-29 23:23 | 29.88065 | 130.27743 | 37939 ft | 440 kts | 216° |
| 2026-04-29 23:24 | 29.82762 | 130.24228 | 37941 ft | 440 kts | 216° |
| 2026-04-29 23:24 | 29.77444 | 130.20709 | 37939 ft | 440 kts | 216° |
| 2026-04-29 23:25 | 29.73027 | 130.17789 | 37939 ft | 440 kts | 216° |
| 2026-04-29 23:25 | 29.67715 | 130.14281 | 37936 ft | 440 kts | 216° |
| 2026-04-29 23:26 | 29.62399 | 130.10775 | 37936 ft | 441 kts | 216° |
| 2026-04-29 23:26 | 29.57066 | 130.07263 | 37933 ft | 441 kts | 216° |
| 2026-04-29 23:27 | 29.51759 | 130.03783 | 37935 ft | 441 kts | 215° |
| 2026-04-29 23:27 | 29.46428 | 130.00275 | 37931 ft | 442 kts | 215° |
| 2026-04-29 23:28 | 29.41095 | 129.96773 | 37934 ft | 441 kts | 215° |
| 2026-04-29 23:28 | 29.35761 | 129.93276 | 37927 ft | 442 kts | 215° |
| 2026-04-29 23:29 | 29.30417 | 129.89776 | 37927 ft | 442 kts | 215° |
| 2026-04-29 23:29 | 29.25068 | 129.86281 | 37925 ft | 442 kts | 215° |
| 2026-04-29 23:30 | 29.19751 | 129.82811 | 37927 ft | 443 kts | 215° |
| 2026-04-29 23:30 | 29.14385 | 129.79312 | 37924 ft | 444 kts | 214° |
| 2026-04-29 23:31 | 29.09010 | 129.75809 | 37922 ft | 445 kts | 214° |
| 2026-04-29 23:31 | 29.03626 | 129.72310 | 37924 ft | 445 kts | 214° |
| 2026-04-29 23:32 | 28.98244 | 129.68812 | 37917 ft | 445 kts | 214° |
| 2026-04-29 23:32 | 28.92859 | 129.65317 | 37915 ft | 446 kts | 214° |
| 2026-04-29 23:33 | 28.87463 | 129.61821 | 37916 ft | 446 kts | 214° |
| 2026-04-29 23:33 | 28.82064 | 129.58325 | 37916 ft | 446 kts | 214° |
| 2026-04-29 23:34 | 28.76693 | 129.54853 | 37916 ft | 447 kts | 214° |
| 2026-04-29 23:34 | 28.71276 | 129.51357 | 37915 ft | 447 kts | 214° |
| 2026-04-29 23:35 | 28.65864 | 129.47868 | 37915 ft | 447 kts | 214° |
| 2026-04-29 23:35 | 28.60436 | 129.44370 | 37916 ft | 448 kts | 214° |
| 2026-04-29 23:36 | 28.55007 | 129.40876 | 37916 ft | 448 kts | 214° |
| 2026-04-29 23:36 | 28.49582 | 129.37387 | 37915 ft | 449 kts | 214° |
| 2026-04-29 23:37 | 28.44141 | 129.33893 | 37916 ft | 449 kts | 214° |
| 2026-04-29 23:37 | 28.38703 | 129.30409 | 37917 ft | 449 kts | 214° |
| 2026-04-29 23:38 | 28.33291 | 129.26944 | 37927 ft | 449 kts | 214° |
| 2026-04-29 23:38 | 28.27848 | 129.23463 | 37919 ft | 449 kts | 214° |
| 2026-04-29 23:39 | 28.22396 | 129.19980 | 37915 ft | 449 kts | 214° |
| 2026-04-29 23:39 | 28.16947 | 129.16503 | 37924 ft | 449 kts | 214° |
| 2026-04-29 23:40 | 28.11503 | 129.13032 | 37925 ft | 448 kts | 213° |
| 2026-04-29 23:40 | 28.06097 | 129.09592 | 37927 ft | 448 kts | 213° |
| 2026-04-29 23:41 | 28.00654 | 129.06134 | 37924 ft | 448 kts | 213° |
| 2026-04-29 23:41 | 27.95201 | 129.02669 | 37931 ft | 450 kts | 213° |
| 2026-04-29 23:42 | 27.89753 | 128.99211 | 37933 ft | 451 kts | 213° |
| 2026-04-29 23:42 | 27.84271 | 128.95738 | 37935 ft | 451 kts | 213° |
| 2026-04-29 23:43 | 27.78795 | 128.92272 | 37934 ft | 451 kts | 213° |
| 2026-04-29 23:43 | 27.73316 | 128.88809 | 37841 ft | 447 kts | 213° |
| 2026-04-29 23:44 | 27.70627 | 128.87114 | 37133 ft | 438 kts | 213° |
| 2026-04-29 23:44 | 27.67978 | 128.85446 | 35884 ft | 435 kts | 213° |
| 2026-04-29 23:44 | 27.65365 | 128.83802 | 35153 ft | 424 kts | 213° |
| 2026-04-29 23:44 | 27.62829 | 128.82203 | 34518 ft | 423 kts | 213° |
| 2026-04-29 23:45 | 27.60244 | 128.80571 | 33817 ft | 428 kts | 213° |
| 2026-04-29 23:45 | 27.57627 | 128.78917 | 33096 ft | 432 kts | 213° |
| 2026-04-29 23:45 | 27.54988 | 128.77253 | 32353 ft | 437 kts | 213° |
| 2026-04-29 23:45 | 27.52323 | 128.75574 | 31596 ft | 441 kts | 213° |
| 2026-04-29 23:46 | 27.49635 | 128.73882 | 30806 ft | 445 kts | 213° |
| 2026-04-29 23:46 | 27.46919 | 128.72169 | 29970 ft | 449 kts | 214° |
| 2026-04-29 23:46 | 27.44372 | 128.70150 | 29098 ft | 448 kts | 224° |
| 2026-04-29 23:46 | 27.42266 | 128.67588 | 28328 ft | 445 kts | 236° |
| 2026-04-29 23:47 | 27.40540 | 128.64717 | 27764 ft | 440 kts | 239° |
| 2026-04-29 23:47 | 27.38929 | 128.61796 | 27187 ft | 437 kts | 240° |
| 2026-04-29 23:47 | 27.37388 | 128.58870 | 26610 ft | 434 kts | 241° |
| 2026-04-29 23:47 | 27.35873 | 128.55942 | 26020 ft | 431 kts | 241° |
| 2026-04-29 23:48 | 27.34373 | 128.53035 | 25443 ft | 428 kts | 241° |
| 2026-04-29 23:48 | 27.32880 | 128.50156 | 24871 ft | 425 kts | 240° |
| 2026-04-29 23:48 | 27.31386 | 128.47295 | 24287 ft | 422 kts | 240° |
| 2026-04-29 23:48 | 27.29900 | 128.44466 | 23728 ft | 419 kts | 240° |
| 2026-04-29 23:49 | 27.28413 | 128.41646 | 23127 ft | 416 kts | 240° |
| 2026-04-29 23:49 | 27.26958 | 128.38893 | 22551 ft | 414 kts | 240° |
| 2026-04-29 23:49 | 27.25488 | 128.36115 | 21964 ft | 411 kts | 240° |
| 2026-04-29 23:49 | 27.24030 | 128.33361 | 21378 ft | 409 kts | 240° |
| 2026-04-29 23:50 | 27.22583 | 128.30630 | 20787 ft | 406 kts | 240° |
| 2026-04-29 23:50 | 27.21143 | 128.27914 | 20214 ft | 403 kts | 240° |
| 2026-04-29 23:50 | 27.18295 | 128.22541 | 19060 ft | 398 kts | 240° |
| 2026-04-29 23:51 | 27.16878 | 128.19872 | 18491 ft | 394 kts | 240° |
| 2026-04-29 23:51 | 27.15478 | 128.17235 | 17913 ft | 391 kts | 240° |
| 2026-04-29 23:51 | 27.14108 | 128.14657 | 17362 ft | 388 kts | 240° |
| 2026-04-29 23:51 | 27.12731 | 128.12069 | 16805 ft | 384 kts | 240° |
| 2026-04-29 23:52 | 27.11368 | 128.09504 | 16232 ft | 381 kts | 240° |
| 2026-04-29 23:52 | 27.10012 | 128.06954 | 15664 ft | 379 kts | 239° |
| 2026-04-29 23:52 | 27.08667 | 128.04430 | 15104 ft | 376 kts | 239° |
| 2026-04-29 23:52 | 27.07328 | 128.01917 | 14541 ft | 373 kts | 239° |
| 2026-04-29 23:53 | 27.06003 | 127.99432 | 13974 ft | 370 kts | 239° |
| 2026-04-29 23:53 | 27.04682 | 127.96956 | 13407 ft | 367 kts | 239° |
| 2026-04-29 23:53 | 27.03379 | 127.94513 | 12874 ft | 363 kts | 239° |
| 2026-04-29 23:53 | 27.02055 | 127.92110 | 12327 ft | 360 kts | 235° |
| 2026-04-29 23:54 | 27.00373 | 127.90057 | 11771 ft | 358 kts | 219° |
| 2026-04-29 23:54 | 26.98260 | 127.88622 | 11530 ft | 348 kts | 209° |
| 2026-04-29 23:54 | 26.96138 | 127.87415 | 11433 ft | 335 kts | 208° |
| 2026-04-29 23:54 | 26.94127 | 127.86284 | 11320 ft | 322 kts | 209° |
| 2026-04-29 23:55 | 26.92167 | 127.85176 | 11214 ft | 310 kts | 209° |
| 2026-04-29 23:55 | 26.90274 | 127.84103 | 11086 ft | 299 kts | 209° |
| 2026-04-29 23:55 | 26.88450 | 127.83068 | 10950 ft | 289 kts | 209° |
| 2026-04-29 23:55 | 26.86681 | 127.82065 | 10823 ft | 280 kts | 209° |
| 2026-04-29 23:56 | 26.84957 | 127.81086 | 10703 ft | 274 kts | 209° |
| 2026-04-29 23:56 | 26.83276 | 127.80129 | 10450 ft | 269 kts | 209° |
| 2026-04-29 23:56 | 26.81599 | 127.79175 | 10099 ft | 270 kts | 209° |
| 2026-04-29 23:56 | 26.79920 | 127.78222 | 9807 ft | 270 kts | 209° |
| 2026-04-29 23:57 | 26.78254 | 127.77280 | 9513 ft | 267 kts | 209° |
| 2026-04-29 23:57 | 26.76587 | 127.76332 | 9166 ft | 268 kts | 209° |
| 2026-04-29 23:57 | 26.74925 | 127.75386 | 8851 ft | 267 kts | 209° |
| 2026-04-29 23:57 | 26.73272 | 127.74447 | 8543 ft | 266 kts | 208° |
| 2026-04-29 23:58 | 26.71630 | 127.73516 | 8239 ft | 263 kts | 208° |
| 2026-04-29 23:58 | 26.69997 | 127.72593 | 7900 ft | 262 kts | 208° |
| 2026-04-29 23:58 | 26.68374 | 127.71674 | 7572 ft | 261 kts | 208° |
| 2026-04-29 23:58 | 26.66758 | 127.70762 | 7248 ft | 259 kts | 208° |
| 2026-04-29 23:59 | 26.65161 | 127.69860 | 6764 ft | 254 kts | 208° |
| 2026-04-29 23:59 | 26.63610 | 127.68980 | 6240 ft | 247 kts | 208° |
| 2026-04-29 23:59 | 26.62103 | 127.68127 | 5879 ft | 240 kts | 208° |
| 2026-04-29 23:59 | 26.60636 | 127.67297 | 5558 ft | 240 kts | 208° |
| 2026-04-30 00:00 | 26.59136 | 127.66448 | 5228 ft | 242 kts | 208° |
| 2026-04-30 00:00 | 26.57626 | 127.65592 | 4898 ft | 244 kts | 207° |
| 2026-04-30 00:00 | 26.56103 | 127.64730 | 4574 ft | 244 kts | 207° |
| 2026-04-30 00:00 | 26.54590 | 127.63876 | 4248 ft | 243 kts | 207° |
| 2026-04-30 00:01 | 26.53088 | 127.63029 | 3925 ft | 241 kts | 207° |
| 2026-04-30 00:01 | 26.51590 | 127.62182 | 3603 ft | 240 kts | 207° |
| 2026-04-30 00:01 | 26.50054 | 127.61474 | 3279 ft | 240 kts | 195° |
| 2026-04-30 00:01 | 26.48394 | 127.61375 | 2937 ft | 241 kts | 176° |
| 2026-04-30 00:02 | 26.46729 | 127.61646 | 2624 ft | 242 kts | 173° |
| 2026-04-30 00:02 | 26.45096 | 127.61956 | 2503 ft | 234 kts | 173° |
| 2026-04-30 00:02 | 26.43522 | 127.62254 | 2402 ft | 225 kts | 173° |
| 2026-04-30 00:02 | 26.42027 | 127.62527 | 2300 ft | 216 kts | 174° |
| 2026-04-30 00:03 | 26.40569 | 127.62787 | 2168 ft | 209 kts | 173° |
| 2026-04-30 00:03 | 26.39157 | 127.63040 | 2054 ft | 202 kts | 173° |
| 2026-04-30 00:03 | 26.37773 | 127.63285 | 1862 ft | 201 kts | 173° |
| 2026-04-30 00:03 | 26.36389 | 127.63530 | 1596 ft | 200 kts | 173° |
| 2026-04-30 00:04 | 26.35040 | 127.63768 | 1328 ft | 192 kts | 173° |
| 2026-04-30 00:04 | 26.33689 | 127.63920 | 1219 ft | 201 kts | 178° |
| 2026-04-30 00:04 | 26.32272 | 127.63998 | 1204 ft | 205 kts | 179° |
| 2026-04-30 00:04 | 26.30886 | 127.64063 | 1202 ft | 190 kts | 180° |
| 2026-04-30 00:05 | 26.29662 | 127.64123 | 1254 ft | 163 kts | 180° |
| 2026-04-30 00:05 | 26.28609 | 127.64175 | 1227 ft | 139 kts | 181° |
| 2026-04-30 00:05 | 26.27687 | 127.64219 | 1233 ft | 130 kts | 181° |
| 2026-04-30 00:05 | 26.26776 | 127.64259 | 1194 ft | 133 kts | 181° |
| 2026-04-30 00:06 | 26.25861 | 127.64309 | 983 ft | 132 kts | 180° |
| 2026-04-30 00:06 | 26.24957 | 127.64346 | 812 ft | 128 kts | 181° |
| 2026-04-30 00:06 | 26.24058 | 127.64396 | 657 ft | 130 kts | 179° |
| 2026-04-30 00:06 | 26.23154 | 127.64443 | 462 ft | 129 kts | 180° |
| 2026-04-30 00:07 | 26.22263 | 127.64484 | 298 ft | 128 kts | 180° |
| 2026-04-30 00:07 | 26.21367 | 127.64513 | 145 ft | 130 kts | 180° |
| 2026-04-30 00:07 | 26.20461 | 127.64545 | 28 ft | 124 kts | 178° |
| 2026-04-30 00:07 | 26.19890 | 127.64573 | 20 ft | 41 kts | 178° |
| 2026-04-30 00:08 | 26.19625 | 127.64584 | 20 ft | 31 kts | 177° |
| 2026-04-30 00:08 | 26.19452 | 127.64597 | 20 ft | 19 kts | 172° |
| 2026-04-30 00:08 | 26.19327 | 127.64634 | 25 ft | 18 kts | 157° |
| 2026-04-30 00:08 | 26.19232 | 127.64696 | 23 ft | 13 kts | 144° |
| 2026-04-30 00:09 | 26.19213 | 127.64784 | 21 ft | 9 kts | 56° |
| 2026-04-30 00:09 | 26.19276 | 127.64807 | 21 ft | 11 kts | 1° |
| 2026-04-30 00:09 | 26.19360 | 127.64802 | 21 ft | 13 kts | 356° |
| 2026-04-30 00:09 | 26.19452 | 127.64797 | 21 ft | 14 kts | 0° |
| 2026-04-30 00:10 | 26.19518 | 127.64797 | 21 ft | 16 kts | 359° |
| 2026-04-30 00:10 | 26.19638 | 127.64791 | 21 ft | 18 kts | 358° |
| 2026-04-30 00:10 | 26.19802 | 127.64783 | 25 ft | 17 kts | 358° |
| 2026-04-30 00:10 | 26.19877 | 127.64780 | 23 ft | 15 kts | 358° |
| 2026-04-30 00:11 | 26.19982 | 127.64776 | 24 ft | 15 kts | 358° |
| 2026-04-30 00:11 | 26.20093 | 127.64770 | 21 ft | 17 kts | 357° |
| 2026-04-30 00:11 | 26.20209 | 127.64765 | 23 ft | 16 kts | 357° |
| 2026-04-30 00:11 | 26.20304 | 127.64765 | 21 ft | 10 kts | 17° |
| 2026-04-30 00:12 | 26.20343 | 127.64805 | 24 ft | 4 kts | 64° |
| 2026-04-30 00:12 | 26.20352 | 127.64866 | 25 ft | 7 kts | 85° |
| 2026-04-30 00:12 | 26.20366 | 127.64898 | 25 ft | 2 kts | 34° |
| 2026-04-30 00:12 | 26.20412 | 127.64922 | 29 ft | 7 kts | 27° |
| 2026-04-30 00:13 | 26.20434 | 127.64935 | 27 ft | 2 kts | 27° |
| 2026-04-30 00:13 | 26.20436 | 127.64936 | 26 ft | 0 kts | 27° |